createdAt,value
2023-04-21T00:00:30.902Z,32.73
2023-04-21T00:01:30.908Z,32.76
2023-04-21T00:02:31.215Z,32.74
2023-04-21T00:03:31.106Z,32.75
2023-04-21T00:04:31.058Z,32.75
2023-04-21T00:05:31.188Z,32.73
2023-04-21T00:06:30.980Z,32.75
2023-04-21T00:07:30.979Z,32.73
2023-04-21T00:08:30.991Z,32.74
2023-04-21T00:09:31.014Z,32.74
2023-04-21T00:10:31.009Z,32.73
2023-04-21T00:11:31.046Z,32.72
2023-04-21T00:12:31.073Z,32.74
2023-04-21T00:13:31.057Z,32.72
2023-04-21T00:14:31.072Z,32.75
2023-04-21T00:15:31.104Z,32.74
2023-04-21T00:16:31.160Z,32.73
2023-04-21T00:17:31.161Z,32.74
2023-04-21T00:18:31.084Z,32.73
2023-04-21T00:19:31.128Z,32.72
2023-04-21T00:20:31.156Z,32.73
2023-04-21T00:21:31.151Z,32.73
2023-04-21T00:22:31.305Z,32.72
2023-04-21T00:23:31.177Z,32.72
2023-04-21T00:24:31.219Z,32.74
2023-04-21T00:25:31.222Z,32.70
2023-04-21T00:26:31.221Z,32.72
2023-04-21T00:27:31.224Z,32.72
2023-04-21T00:28:31.239Z,32.73
2023-04-21T00:29:31.284Z,32.70
2023-04-21T00:30:31.297Z,32.72
2023-04-21T00:31:31.319Z,32.69
2023-04-21T00:32:31.365Z,32.71
2023-04-21T00:33:31.315Z,32.71
2023-04-21T00:34:31.352Z,32.71
2023-04-21T00:35:31.362Z,32.73
2023-04-21T00:36:31.371Z,32.71
2023-04-21T00:37:31.406Z,32.70
2023-04-21T00:38:31.664Z,32.69
2023-04-21T00:39:31.427Z,32.70
2023-04-21T00:40:31.420Z,32.71
2023-04-21T00:41:31.442Z,32.72
2023-04-21T00:42:31.461Z,32.71
2023-04-21T00:43:31.503Z,32.71
2023-04-21T00:44:31.517Z,32.68
2023-04-21T00:45:31.560Z,32.71
2023-04-21T00:46:31.642Z,32.70
2023-04-21T00:47:31.648Z,32.69
2023-04-21T00:48:31.616Z,32.70
2023-04-21T00:49:31.636Z,32.71
2023-04-21T00:50:31.640Z,32.70
2023-04-21T00:51:31.712Z,32.69
2023-04-21T00:52:31.730Z,32.69
2023-04-21T00:53:31.715Z,32.70
2023-04-21T00:54:31.738Z,32.68
2023-04-21T00:55:31.731Z,32.70
2023-04-21T00:56:31.792Z,32.72
2023-04-21T00:57:31.852Z,32.68
2023-04-21T00:58:31.836Z,32.67
2023-04-21T00:59:31.828Z,32.68
2023-04-21T01:00:31.919Z,32.66
2023-04-21T01:01:31.876Z,32.69
2023-04-21T01:02:32.026Z,32.68
2023-04-21T01:03:32.094Z,32.68
2023-04-21T01:04:31.940Z,32.68
2023-04-21T01:05:31.975Z,32.69
2023-04-21T01:06:32.052Z,32.69
2023-04-21T01:07:31.995Z,32.67
2023-04-21T01:08:32.076Z,32.68
2023-04-21T01:09:32.044Z,32.69
2023-04-21T01:10:32.073Z,32.69
2023-04-21T01:11:32.076Z,32.69
2023-04-21T01:12:32.157Z,32.70
2023-04-21T01:13:32.174Z,32.69
2023-04-21T01:14:32.197Z,32.68
2023-04-21T01:15:32.174Z,32.68
2023-04-21T01:16:32.222Z,32.68
2023-04-21T01:17:32.286Z,32.67
2023-04-21T01:18:32.247Z,32.67
2023-04-21T01:19:32.315Z,32.67
2023-04-21T01:20:32.347Z,32.69
2023-04-21T01:21:32.340Z,32.68
2023-04-21T01:22:32.387Z,32.68
2023-04-21T01:23:32.351Z,32.69
2023-04-21T01:24:32.379Z,32.69
2023-04-21T01:25:32.420Z,32.69
2023-04-21T01:26:32.449Z,32.68
2023-04-21T01:27:32.453Z,32.68
2023-04-21T01:28:32.450Z,32.67
2023-04-21T01:29:32.484Z,32.68
2023-04-21T01:30:32.508Z,32.65
2023-04-21T01:31:32.547Z,32.66
2023-04-21T01:32:32.704Z,32.66
2023-04-21T01:33:32.573Z,32.68
2023-04-21T01:34:32.621Z,32.67
2023-04-21T01:35:32.631Z,32.66
2023-04-21T01:36:32.646Z,32.65
2023-04-21T01:37:32.646Z,32.64
2023-04-21T01:38:32.708Z,32.67
2023-04-21T01:39:32.685Z,32.66
2023-04-21T01:40:32.762Z,32.68
2023-04-21T01:41:32.773Z,32.66
2023-04-21T01:42:32.783Z,32.67
2023-04-21T01:43:32.783Z,32.65
2023-04-21T01:44:32.803Z,32.66
2023-04-21T01:45:32.836Z,32.67
2023-04-21T01:46:32.870Z,32.68
2023-04-21T01:47:32.921Z,32.68
2023-04-21T01:48:32.920Z,32.67
2023-04-21T01:49:32.936Z,32.66
2023-04-21T01:50:32.952Z,32.65
2023-04-21T01:51:32.987Z,32.64
2023-04-21T01:52:33.006Z,32.66
2023-04-21T01:53:33.025Z,32.65
2023-04-21T01:54:33.072Z,32.67
2023-04-21T01:55:33.080Z,32.65
2023-04-21T01:56:33.115Z,32.64
2023-04-21T01:57:33.128Z,32.65
2023-04-21T01:58:33.143Z,32.65
2023-04-21T01:59:33.157Z,32.63
2023-04-21T02:00:33.182Z,32.67
2023-04-21T02:01:33.226Z,32.67
2023-04-21T02:02:33.315Z,32.63
2023-04-21T02:03:33.418Z,32.64
2023-04-21T02:04:33.396Z,32.64
2023-04-21T02:05:33.314Z,32.63
2023-04-21T02:06:33.370Z,32.63
2023-04-21T02:07:33.385Z,32.66
2023-04-21T02:08:33.408Z,32.62
2023-04-21T02:09:33.411Z,32.65
2023-04-21T02:10:33.436Z,32.63
2023-04-21T02:11:33.490Z,32.63
2023-04-21T02:12:33.507Z,32.63
2023-04-21T02:13:33.513Z,32.65
2023-04-21T02:14:33.572Z,32.65
2023-04-21T02:15:33.660Z,32.63
2023-04-21T02:16:33.648Z,32.64
2023-04-21T02:17:33.699Z,32.62
2023-04-21T02:18:33.693Z,32.64
2023-04-21T02:19:33.701Z,32.63
2023-04-21T02:20:33.750Z,32.64
2023-04-21T02:21:33.770Z,32.64
2023-04-21T02:22:33.787Z,32.62
2023-04-21T02:23:33.812Z,32.62
2023-04-21T02:24:33.813Z,32.63
2023-04-21T02:25:33.862Z,32.63
2023-04-21T02:26:33.912Z,32.61
2023-04-21T02:27:33.942Z,32.63
2023-04-21T02:28:33.950Z,32.63
2023-04-21T02:29:33.961Z,32.63
2023-04-21T02:30:34.004Z,32.63
2023-04-21T02:31:40.434Z,32.62
2023-04-21T02:32:35.194Z,32.63
2023-04-21T02:33:34.006Z,32.61
2023-04-21T02:34:34.020Z,32.62
2023-04-21T02:35:33.992Z,32.63
2023-04-21T02:36:34.014Z,32.64
2023-04-21T02:37:33.976Z,32.62
2023-04-21T02:38:33.972Z,32.63
2023-04-21T02:39:34.001Z,32.60
2023-04-21T02:40:33.992Z,32.59
2023-04-21T02:41:33.975Z,32.63
2023-04-21T02:42:33.942Z,32.63
2023-04-21T02:43:33.972Z,32.60
2023-04-21T02:44:33.933Z,32.62
2023-04-21T02:45:33.933Z,32.62
2023-04-21T02:46:33.995Z,32.61
2023-04-21T02:47:33.936Z,32.60
2023-04-21T02:48:33.915Z,32.61
2023-04-21T02:49:33.909Z,32.61
2023-04-21T02:50:33.947Z,32.61
2023-04-21T02:51:33.945Z,32.61
2023-04-21T02:52:33.983Z,32.62
2023-04-21T02:53:34.004Z,32.62
2023-04-21T02:54:33.991Z,32.60
2023-04-21T02:55:34.073Z,32.60
2023-04-21T02:56:34.099Z,32.59
2023-04-21T02:57:34.077Z,32.61
2023-04-21T02:58:34.122Z,32.61
2023-04-21T02:59:34.180Z,32.61
2023-04-21T03:00:34.226Z,32.60
2023-04-21T03:01:34.212Z,32.61
2023-04-21T03:02:34.373Z,32.60
2023-04-21T03:03:34.314Z,32.60
2023-04-21T03:04:34.550Z,32.59
2023-04-21T03:05:34.328Z,32.60
2023-04-21T03:06:34.372Z,32.60
2023-04-21T03:07:34.397Z,32.59
2023-04-21T03:08:34.436Z,32.59
2023-04-21T03:09:34.446Z,32.59
2023-04-21T03:10:34.485Z,32.60
2023-04-21T03:11:34.524Z,32.60
2023-04-21T03:12:34.527Z,32.58
2023-04-21T03:13:34.548Z,32.60
2023-04-21T03:14:34.584Z,32.58
2023-04-21T03:15:34.621Z,32.59
2023-04-21T03:16:34.664Z,32.60
2023-04-21T03:17:34.691Z,32.60
2023-04-21T03:18:34.714Z,32.60
2023-04-21T03:19:34.723Z,32.61
2023-04-21T03:20:34.762Z,32.59
2023-04-21T03:21:34.795Z,32.61
2023-04-21T03:22:34.819Z,32.58
2023-04-21T03:23:34.889Z,32.60
2023-04-21T03:24:34.884Z,32.58
2023-04-21T03:25:35.649Z,32.59
2023-04-21T03:26:34.953Z,32.58
2023-04-21T03:27:34.991Z,32.58
2023-04-21T03:28:34.997Z,32.58
2023-04-21T03:29:35.028Z,32.58
2023-04-21T03:30:35.080Z,32.60
2023-04-21T03:31:35.136Z,32.58
2023-04-21T03:32:35.191Z,32.57
2023-04-21T03:33:35.166Z,32.59
2023-04-21T03:34:35.205Z,32.58
2023-04-21T03:35:35.235Z,32.60
2023-04-21T03:36:35.298Z,32.58
2023-04-21T03:37:35.308Z,32.56
2023-04-21T03:38:35.331Z,32.58
2023-04-21T03:39:35.391Z,32.59
2023-04-21T03:40:35.455Z,32.56
2023-04-21T03:41:35.463Z,32.57
2023-04-21T03:42:35.495Z,32.58
2023-04-21T03:43:35.500Z,32.58
2023-04-21T03:44:35.525Z,32.57
2023-04-21T03:45:35.635Z,32.57
2023-04-21T03:46:35.591Z,32.56
2023-04-21T03:47:35.696Z,32.58
2023-04-21T03:48:35.638Z,32.57
2023-04-21T03:49:35.679Z,32.56
2023-04-21T03:50:35.704Z,32.59
2023-04-21T03:51:35.799Z,32.57
2023-04-21T03:52:35.830Z,32.58
2023-04-21T03:53:35.787Z,32.55
2023-04-21T03:54:35.834Z,32.55
2023-04-21T03:55:35.855Z,32.56
2023-04-21T03:56:35.866Z,32.56
2023-04-21T03:57:35.919Z,32.57
2023-04-21T03:58:35.929Z,32.56
2023-04-21T03:59:35.958Z,32.58
2023-04-21T04:00:36.025Z,32.58
2023-04-21T04:01:36.041Z,32.57
2023-04-21T04:02:36.206Z,32.54
2023-04-21T04:03:36.234Z,32.57
2023-04-21T04:04:36.224Z,32.56
2023-04-21T04:05:36.193Z,32.57
2023-04-21T04:06:36.221Z,32.57
2023-04-21T04:07:36.237Z,32.57
2023-04-21T04:08:36.262Z,32.57
2023-04-21T04:09:36.303Z,32.55
2023-04-21T04:10:36.340Z,32.57
2023-04-21T04:11:36.366Z,32.56
2023-04-21T04:12:36.403Z,32.58
2023-04-21T04:13:36.412Z,32.56
2023-04-21T04:14:36.484Z,32.56
2023-04-21T04:15:36.523Z,32.55
2023-04-21T04:16:36.512Z,32.57
2023-04-21T04:17:36.640Z,32.55
2023-04-21T04:18:36.615Z,32.56
2023-04-21T04:19:36.661Z,32.58
2023-04-21T04:20:36.678Z,32.55
2023-04-21T04:21:36.713Z,32.55
2023-04-21T04:22:36.770Z,32.56
2023-04-21T04:23:36.767Z,32.56
2023-04-21T04:24:36.813Z,32.57
2023-04-21T04:25:36.860Z,32.56
2023-04-21T04:26:36.904Z,32.56
2023-04-21T04:27:36.926Z,32.55
2023-04-21T04:28:36.939Z,32.56
2023-04-21T04:29:36.990Z,32.56
2023-04-21T04:30:37.046Z,32.57
2023-04-21T04:31:37.076Z,32.56
2023-04-21T04:32:37.103Z,32.55
2023-04-21T04:33:37.156Z,32.56
2023-04-21T04:34:37.122Z,32.57
2023-04-21T04:35:37.173Z,32.53
2023-04-21T04:36:37.231Z,32.55
2023-04-21T04:37:37.239Z,32.56
2023-04-21T04:38:37.262Z,32.55
2023-04-21T04:39:37.311Z,32.55
2023-04-21T04:40:37.351Z,32.54
2023-04-21T04:41:37.381Z,32.54
2023-04-21T04:42:37.418Z,32.55
2023-04-21T04:43:37.432Z,32.55
2023-04-21T04:44:37.454Z,32.55
2023-04-21T04:45:37.491Z,32.55
2023-04-21T04:46:37.610Z,32.55
2023-04-21T04:47:37.577Z,32.54
2023-04-21T04:48:37.634Z,32.54
2023-04-21T04:49:37.648Z,32.54
2023-04-21T04:50:37.674Z,32.53
2023-04-21T04:51:37.731Z,32.53
2023-04-21T04:52:37.727Z,32.55
2023-04-21T04:53:37.754Z,32.53
2023-04-21T04:54:37.822Z,32.53
2023-04-21T04:55:37.846Z,32.55
2023-04-21T04:56:37.928Z,32.55
2023-04-21T04:57:37.930Z,32.52
2023-04-21T04:58:37.951Z,32.54
2023-04-21T04:59:37.996Z,32.55
2023-04-21T05:00:38.060Z,32.54
2023-04-21T05:01:38.144Z,32.53
2023-04-21T05:02:38.197Z,32.53
2023-04-21T05:03:38.231Z,32.51
2023-04-21T05:04:38.282Z,32.54
2023-04-21T05:05:38.162Z,32.54
2023-04-21T05:06:38.218Z,32.55
2023-04-21T05:07:38.273Z,32.57
2023-04-21T05:08:38.252Z,32.59
2023-04-21T05:09:38.320Z,32.57
2023-04-21T05:10:38.375Z,32.60
2023-04-21T05:11:38.402Z,32.62
2023-04-21T05:12:38.404Z,32.62
2023-04-21T05:13:40.187Z,32.60
2023-04-21T05:14:38.489Z,32.62
2023-04-21T05:15:38.524Z,32.62
2023-04-21T05:16:38.591Z,32.62
2023-04-21T05:17:38.578Z,32.62
2023-04-21T05:18:38.605Z,32.62
2023-04-21T05:19:38.572Z,32.63
2023-04-21T05:20:38.571Z,32.60
2023-04-21T05:21:38.579Z,32.60
2023-04-21T05:22:38.593Z,32.57
2023-04-21T05:23:38.601Z,32.60
2023-04-21T05:24:38.585Z,32.59
2023-04-21T05:25:38.657Z,32.59
2023-04-21T05:26:38.645Z,32.56
2023-04-21T05:27:38.582Z,32.57
2023-04-21T05:28:38.595Z,32.56
2023-04-21T05:29:38.606Z,32.58
2023-04-21T05:30:38.604Z,32.56
2023-04-21T05:31:38.652Z,32.57
2023-04-21T05:32:38.733Z,32.57
2023-04-21T05:33:38.622Z,32.57
2023-04-21T05:34:38.626Z,32.56
2023-04-21T05:35:38.650Z,32.55
2023-04-21T05:36:38.650Z,32.56
2023-04-21T05:37:38.732Z,32.54
2023-04-21T05:38:38.735Z,32.57
2023-04-21T05:39:38.785Z,32.55
2023-04-21T05:40:38.857Z,32.55
2023-04-21T05:41:38.946Z,32.56
2023-04-21T05:42:39.019Z,32.51
2023-04-21T05:43:39.035Z,32.54
2023-04-21T05:44:39.114Z,32.55
2023-04-21T05:45:39.207Z,32.55
2023-04-21T05:46:39.360Z,32.53
2023-04-21T05:47:39.415Z,33.16
2023-04-21T05:48:39.367Z,33.07
2023-04-21T05:49:39.439Z,32.92
2023-04-21T05:50:39.490Z,32.85
2023-04-21T05:51:39.578Z,32.87
2023-04-21T05:52:39.632Z,33.38
2023-04-21T05:53:39.687Z,33.34
2023-04-21T05:54:39.765Z,33.27
2023-04-21T05:55:39.760Z,33.13
2023-04-21T05:56:39.841Z,34.22
2023-04-21T05:57:39.891Z,33.72
2023-04-21T05:58:39.919Z,33.61
2023-04-21T05:59:39.976Z,33.89
2023-04-21T06:00:40.032Z,33.73
2023-04-21T06:01:40.036Z,33.77
2023-04-21T06:02:40.239Z,33.92
2023-04-21T06:03:40.174Z,34.40
2023-04-21T06:04:40.272Z,34.75
2023-04-21T06:05:40.111Z,34.48
2023-04-21T06:06:40.102Z,34.56
2023-04-21T06:07:40.135Z,35.23
2023-04-21T06:08:40.094Z,35.21
2023-04-21T06:09:40.121Z,35.30
2023-04-21T06:10:40.114Z,35.52
2023-04-21T06:11:40.189Z,35.70
2023-04-21T06:12:40.229Z,36.06
2023-04-21T06:13:42.268Z,36.30
2023-04-21T06:14:40.274Z,36.35
2023-04-21T06:15:40.265Z,36.67
2023-04-21T06:16:40.306Z,36.75
2023-04-21T06:17:40.299Z,37.26
2023-04-21T06:18:40.240Z,37.00
2023-04-21T06:19:41.876Z,36.92
2023-04-21T06:20:40.198Z,37.13
2023-04-21T06:21:40.744Z,37.65
2023-04-21T06:22:40.223Z,37.68
2023-04-21T06:23:40.197Z,38.37
2023-04-21T06:24:40.207Z,38.45
2023-04-21T06:25:40.236Z,38.19
2023-04-21T06:26:40.187Z,38.22
2023-04-21T06:27:40.213Z,39.16
2023-04-21T06:28:40.164Z,39.08
2023-04-21T06:29:40.194Z,38.80
2023-04-21T06:30:40.162Z,39.09
2023-04-21T06:31:40.189Z,38.86
2023-04-21T06:32:40.182Z,39.19
2023-04-21T06:33:40.138Z,39.08
2023-04-21T06:34:40.148Z,39.46
2023-04-21T06:35:40.131Z,39.60
2023-04-21T06:36:40.126Z,39.66
2023-04-21T06:37:40.091Z,39.62
2023-04-21T06:38:40.125Z,39.75
2023-04-21T06:39:40.096Z,40.03
2023-04-21T06:40:40.083Z,40.18
2023-04-21T06:41:40.092Z,40.09
2023-04-21T06:42:40.086Z,40.23
2023-04-21T06:43:40.061Z,40.27
2023-04-21T06:44:40.045Z,40.08
2023-04-21T06:45:40.057Z,40.10
2023-04-21T06:46:40.097Z,40.28
2023-04-21T06:47:40.082Z,40.03
2023-04-21T06:48:40.040Z,40.37
2023-04-21T06:49:40.045Z,40.55
2023-04-21T06:50:40.118Z,40.67
2023-04-21T06:51:40.163Z,40.64
2023-04-21T06:52:40.238Z,40.74
2023-04-21T06:53:40.275Z,39.79
2023-04-21T06:54:40.342Z,39.11
2023-04-21T06:55:40.363Z,38.91
2023-04-21T06:56:40.398Z,38.85
2023-04-21T06:57:40.407Z,38.77
2023-04-21T06:58:40.420Z,38.54
2023-04-21T06:59:40.422Z,38.48
2023-04-21T07:00:40.500Z,38.40
2023-04-21T07:01:40.504Z,38.34
2023-04-21T07:02:40.599Z,38.21
2023-04-21T07:03:40.485Z,38.12
2023-04-21T07:04:40.538Z,37.96
2023-04-21T07:05:40.489Z,37.85
2023-04-21T07:06:40.513Z,37.81
2023-04-21T07:07:40.539Z,37.75
2023-04-21T07:08:40.556Z,37.67
2023-04-21T07:09:40.568Z,37.58
2023-04-21T07:10:40.608Z,37.44
2023-04-21T07:11:40.613Z,37.33
2023-04-21T07:12:40.613Z,37.18
2023-04-21T07:13:40.651Z,37.00
2023-04-21T07:14:40.648Z,36.91
2023-04-21T07:15:40.695Z,36.81
2023-04-21T07:16:40.781Z,36.71
2023-04-21T07:17:40.822Z,36.64
2023-04-21T07:18:40.813Z,36.55
2023-04-21T07:19:40.859Z,36.47
2023-04-21T07:20:40.880Z,36.40
2023-04-21T07:21:40.993Z,36.33
2023-04-21T07:22:40.972Z,36.31
2023-04-21T07:23:41.033Z,36.23
2023-04-21T07:24:41.075Z,36.18
2023-04-21T07:25:41.118Z,36.08
2023-04-21T07:26:41.236Z,36.05
2023-04-21T07:27:41.269Z,35.97
2023-04-21T07:28:41.300Z,35.93
2023-04-21T07:29:41.353Z,35.89
2023-04-21T07:30:41.425Z,35.83
2023-04-21T07:31:41.512Z,35.75
2023-04-21T07:32:41.551Z,35.71
2023-04-21T07:33:41.552Z,35.63
2023-04-21T07:34:41.630Z,35.59
2023-04-21T07:35:41.699Z,35.52
2023-04-21T07:36:41.799Z,35.48
2023-04-21T07:37:41.868Z,35.43
2023-04-21T07:38:41.895Z,35.37
2023-04-21T07:39:41.958Z,35.34
2023-04-21T07:40:42.003Z,35.31
2023-04-21T07:41:42.111Z,35.26
2023-04-21T07:42:42.159Z,35.23
2023-04-21T07:43:42.211Z,35.19
2023-04-21T07:44:42.242Z,35.14
2023-04-21T07:45:42.248Z,35.11
2023-04-21T07:46:42.353Z,35.07
2023-04-21T07:47:42.378Z,34.99
2023-04-21T07:48:42.405Z,34.71
2023-04-21T07:49:42.383Z,35.05
2023-04-21T07:50:42.434Z,35.32
2023-04-21T07:51:42.470Z,35.38
2023-04-21T07:52:42.529Z,35.41
2023-04-21T07:53:42.637Z,35.52
2023-04-21T07:54:42.675Z,35.57
2023-04-21T07:55:42.726Z,35.60
2023-04-21T07:56:42.767Z,35.62
2023-04-21T07:57:42.848Z,35.59
2023-04-21T07:58:42.890Z,35.53
2023-04-21T07:59:42.932Z,35.49
2023-04-21T08:00:43.002Z,35.43
2023-04-21T08:01:43.039Z,35.36
2023-04-21T08:02:43.147Z,35.33
2023-04-21T08:03:43.217Z,35.27
2023-04-21T08:04:43.329Z,35.23
2023-04-21T08:05:43.372Z,35.19
2023-04-21T08:06:43.422Z,35.16
2023-04-21T08:07:43.403Z,35.13
2023-04-21T08:08:43.478Z,35.08
2023-04-21T08:09:43.568Z,35.08
2023-04-21T08:10:43.587Z,35.05
2023-04-21T08:11:43.697Z,35.03
2023-04-21T08:12:43.710Z,35.01
2023-04-21T08:13:43.772Z,35.01
2023-04-21T08:14:43.824Z,35.00
2023-04-21T08:15:44.066Z,34.96
2023-04-21T08:16:44.018Z,34.96
2023-04-21T08:17:44.041Z,34.94
2023-04-21T08:18:44.117Z,34.92
2023-04-21T08:19:44.184Z,34.94
2023-04-21T08:20:44.237Z,34.95
2023-04-21T08:21:44.350Z,34.94
2023-04-21T08:22:46.004Z,34.96
2023-04-21T08:23:44.373Z,34.98
2023-04-21T08:24:44.395Z,34.96
2023-04-21T08:25:44.340Z,34.96
2023-04-21T08:26:44.353Z,34.93
2023-04-21T08:27:44.313Z,34.97
2023-04-21T08:28:44.283Z,34.94
2023-04-21T08:29:44.342Z,34.93
2023-04-21T08:30:44.290Z,34.90
2023-04-21T08:31:44.322Z,34.90
2023-04-21T08:32:44.290Z,34.87
2023-04-21T08:33:58.012Z,34.86
2023-04-21T08:34:45.252Z,34.88
2023-04-21T08:35:59.300Z,34.87
2023-04-21T08:36:45.251Z,34.85
2023-04-21T08:37:44.252Z,34.83
2023-04-21T08:38:44.334Z,34.85
2023-04-21T08:39:44.236Z,34.83
2023-04-21T08:40:44.211Z,34.85
2023-04-21T08:41:44.216Z,34.82
2023-04-21T08:42:44.191Z,34.77
2023-04-21T08:43:44.250Z,34.83
2023-04-21T08:44:44.288Z,34.85
2023-04-21T08:45:44.417Z,34.93
2023-04-21T08:46:44.384Z,34.98
2023-04-21T08:47:44.503Z,35.10
2023-04-21T08:48:44.546Z,35.13
2023-04-21T08:49:44.503Z,35.21
2023-04-21T08:50:44.562Z,35.30
2023-04-21T08:51:44.562Z,35.39
2023-04-21T08:52:44.595Z,35.54
2023-04-21T08:53:44.626Z,35.50
2023-04-21T08:54:44.635Z,35.55
2023-04-21T08:55:44.647Z,35.93
2023-04-21T08:56:44.691Z,35.97
2023-04-21T08:57:44.760Z,35.80
2023-04-21T08:58:44.716Z,35.74
2023-04-21T08:59:44.752Z,35.69
2023-04-21T09:00:44.769Z,35.64
2023-04-21T09:01:44.829Z,35.63
2023-04-21T09:02:44.921Z,35.65
2023-04-21T09:03:45.026Z,35.69
2023-04-21T09:04:45.026Z,35.64
2023-04-21T09:05:45.059Z,35.64
2023-04-21T09:06:45.039Z,35.60
2023-04-21T09:07:44.917Z,35.57
2023-04-21T09:08:44.948Z,35.52
2023-04-21T09:09:45.036Z,35.46
2023-04-21T09:10:44.985Z,35.40
2023-04-21T09:11:45.041Z,35.39
2023-04-21T09:12:45.042Z,35.21
2023-04-21T09:13:45.096Z,34.20
2023-04-21T09:14:45.104Z,34.58
2023-04-21T09:15:45.145Z,34.75
2023-04-21T09:16:45.137Z,35.16
2023-04-21T09:17:45.201Z,35.25
2023-04-21T09:18:45.202Z,35.71
2023-04-21T09:19:45.235Z,35.05
2023-04-21T09:20:45.314Z,35.52
2023-04-21T09:21:45.352Z,35.40
2023-04-21T09:22:45.379Z,35.70
2023-04-21T09:23:45.322Z,35.60
2023-04-21T09:24:45.408Z,35.54
2023-04-21T09:25:45.397Z,35.69
2023-04-21T09:26:45.410Z,35.88
2023-04-21T09:27:45.788Z,35.75
2023-04-21T09:28:45.475Z,35.65
2023-04-21T09:29:45.500Z,35.57
2023-04-21T09:30:45.593Z,35.49
2023-04-21T09:31:45.625Z,35.40
2023-04-21T09:32:45.628Z,35.33
2023-04-21T09:33:56.595Z,35.25
2023-04-21T09:34:46.586Z,35.20
2023-04-21T09:35:45.573Z,35.16
2023-04-21T09:36:45.557Z,35.12
2023-04-21T09:37:45.566Z,35.08
2023-04-21T09:38:45.705Z,35.02
2023-04-21T09:39:56.733Z,34.99
2023-04-21T09:40:46.556Z,34.95
2023-04-21T09:41:45.538Z,34.92
2023-04-21T09:42:45.497Z,34.93
2023-04-21T09:43:45.531Z,34.92
2023-04-21T09:44:52.493Z,34.88
2023-04-21T09:45:46.510Z,34.91
2023-04-21T09:46:45.574Z,34.87
2023-04-21T09:47:45.606Z,33.11
2023-04-21T09:48:45.455Z,32.83
2023-04-21T09:49:45.470Z,33.50
2023-04-21T09:52:45.475Z,34.16
2023-04-21T09:53:46.578Z,34.23
2023-04-21T09:54:45.442Z,34.29
2023-04-21T09:55:45.440Z,34.31
2023-04-21T09:56:45.419Z,34.35
2023-04-21T09:57:45.432Z,34.37
2023-04-21T09:58:45.406Z,34.43
2023-04-21T09:59:45.425Z,34.46
2023-04-21T10:00:45.407Z,34.47
2023-04-21T10:01:45.471Z,34.50
2023-04-21T10:02:45.623Z,34.54
2023-04-21T10:03:45.694Z,34.56
2023-04-21T10:04:46.080Z,34.58
2023-04-21T10:05:45.726Z,34.60
2023-04-21T10:06:45.760Z,34.63
2023-04-21T10:07:45.761Z,34.69
2023-04-21T10:08:45.824Z,34.74
2023-04-21T10:09:45.873Z,32.86
2023-04-21T10:10:45.999Z,32.95
2023-04-21T10:11:45.948Z,33.29
2023-04-21T10:12:46.038Z,33.46
2023-04-21T10:13:46.090Z,32.14
2023-04-21T10:14:46.160Z,32.45
2023-04-21T10:15:46.264Z,32.61
2023-04-21T10:16:46.302Z,32.28
2023-04-21T10:17:46.278Z,31.10
2023-04-21T10:18:46.254Z,31.12
2023-04-21T10:19:46.227Z,31.23
2023-04-21T10:20:46.237Z,30.50
2023-04-21T10:21:46.254Z,30.68
2023-04-21T10:22:46.245Z,31.21
2023-04-21T10:23:46.258Z,31.22
2023-04-21T10:24:46.229Z,31.20
2023-04-21T10:25:46.227Z,30.74
2023-04-21T10:26:46.257Z,30.86
2023-04-21T10:27:46.245Z,30.41
2023-04-21T10:28:46.269Z,30.05
2023-04-21T10:29:56.145Z,30.22
2023-04-21T10:30:47.255Z,30.46
2023-04-21T10:31:46.320Z,30.40
2023-04-21T10:32:46.231Z,30.12
2023-04-21T10:33:46.232Z,29.86
2023-04-21T10:34:46.205Z,29.17
2023-04-21T10:35:46.200Z,29.65
2023-04-21T10:36:46.208Z,29.29
2023-04-21T10:37:46.224Z,29.06
2023-04-21T10:38:46.200Z,29.48
2023-04-21T10:39:46.164Z,28.96
2023-04-21T10:40:46.197Z,28.08
2023-04-21T10:41:46.145Z,28.49
2023-04-21T10:42:46.194Z,28.78
2023-04-21T10:43:49.333Z,29.43
2023-04-21T10:44:46.129Z,29.81
2023-04-21T10:45:46.138Z,29.99
2023-04-21T10:46:46.170Z,30.08
2023-04-21T10:47:46.409Z,30.18
2023-04-21T10:48:46.112Z,30.27
2023-04-21T10:49:46.105Z,30.33
2023-04-21T10:50:46.102Z,30.38
2023-04-21T10:51:46.098Z,30.43
2023-04-21T10:52:46.192Z,30.44
2023-04-21T10:53:46.084Z,30.50
2023-04-21T10:54:46.386Z,30.53
2023-04-21T10:55:46.079Z,30.54
2023-04-21T10:56:46.063Z,30.57
2023-04-21T10:57:46.109Z,30.58
2023-04-21T10:58:46.073Z,30.60
2023-04-21T10:59:46.049Z,30.64
2023-04-21T11:00:46.058Z,30.65
2023-04-21T11:01:46.079Z,30.65
2023-04-21T11:02:46.167Z,30.67
2023-04-21T11:03:46.211Z,30.69
2023-04-21T11:04:46.488Z,30.68
2023-04-21T11:05:46.008Z,30.70
2023-04-21T11:06:46.027Z,30.67
2023-04-21T11:07:45.977Z,30.71
2023-04-21T11:08:46.002Z,30.71
2023-04-21T11:09:45.963Z,30.71
2023-04-21T11:10:45.945Z,30.71
2023-04-21T11:11:45.942Z,30.72
2023-04-21T11:12:45.992Z,30.73
2023-04-21T11:13:45.965Z,30.72
2023-04-21T11:14:45.947Z,30.74
2023-04-21T11:15:45.948Z,30.74
2023-04-21T11:16:46.077Z,30.73
2023-04-21T11:17:45.930Z,30.70
2023-04-21T11:18:46.205Z,30.73
2023-04-21T11:19:45.906Z,30.74
2023-04-21T11:20:45.948Z,30.75
2023-04-21T11:21:45.881Z,30.75
2023-04-21T11:22:45.898Z,30.72
2023-04-21T11:23:45.889Z,30.74
2023-04-21T11:24:45.876Z,30.73
2023-04-21T11:25:45.869Z,30.72
2023-04-21T11:26:45.883Z,30.72
2023-04-21T11:27:46.840Z,30.72
2023-04-21T11:28:45.832Z,30.74
2023-04-21T11:29:45.831Z,30.72
2023-04-21T11:30:45.822Z,30.74
2023-04-21T11:31:45.906Z,30.72
2023-04-21T11:32:46.031Z,30.74
2023-04-21T11:33:46.030Z,30.72
2023-04-21T11:34:46.118Z,30.72
2023-04-21T11:35:46.144Z,30.74
2023-04-21T11:36:46.221Z,30.73
2023-04-21T11:37:46.266Z,30.72
2023-04-21T11:38:46.413Z,30.74
2023-04-21T11:39:46.438Z,30.73
2023-04-21T11:40:46.465Z,30.74
2023-04-21T11:41:46.530Z,30.73
2023-04-21T11:42:46.614Z,30.71
2023-04-21T11:43:46.654Z,30.71
2023-04-21T11:44:46.736Z,30.70
2023-04-21T11:45:46.802Z,30.72
2023-04-21T11:46:46.925Z,30.71
2023-04-21T11:47:46.911Z,30.72
2023-04-21T11:48:46.985Z,30.71
2023-04-21T11:49:47.019Z,30.71
2023-04-21T11:50:47.120Z,30.70
2023-04-21T11:51:47.198Z,30.70
2023-04-21T11:52:47.240Z,30.71
2023-04-21T11:53:47.301Z,30.69
2023-04-21T11:54:47.334Z,30.68
2023-04-21T11:55:47.438Z,30.70
2023-04-21T11:56:47.536Z,30.71
2023-04-21T11:57:47.584Z,30.67
2023-04-21T11:58:47.619Z,30.64
2023-04-21T11:59:47.700Z,30.65
2023-04-21T12:00:47.738Z,30.67
2023-04-21T12:01:47.813Z,30.65
2023-04-21T12:02:47.982Z,30.67
2023-04-21T12:03:48.204Z,30.65
2023-04-21T12:04:48.178Z,30.63
2023-04-21T12:05:48.094Z,30.63
2023-04-21T12:06:48.126Z,30.61
2023-04-21T12:07:48.155Z,30.64
2023-04-21T12:08:48.239Z,30.62
2023-04-21T12:09:48.291Z,30.59
2023-04-21T12:10:48.397Z,30.60
2023-04-21T12:11:49.587Z,30.60
2023-04-21T12:12:48.480Z,30.59
2023-04-21T12:13:48.536Z,30.59
2023-04-21T12:14:48.624Z,30.57
2023-04-21T12:15:48.717Z,30.56
2023-04-21T12:16:48.821Z,30.57
2023-04-21T12:17:48.949Z,30.56
2023-04-21T12:18:48.828Z,30.54
2023-04-21T12:19:48.922Z,30.53
2023-04-21T12:20:48.945Z,30.51
2023-04-21T12:21:48.998Z,30.53
2023-04-21T12:22:49.188Z,30.50
2023-04-21T12:23:49.103Z,30.52
2023-04-21T12:24:49.163Z,30.51
2023-04-21T12:25:49.214Z,30.51
2023-04-21T12:26:49.264Z,30.52
2023-04-21T12:27:49.353Z,30.48
2023-04-21T12:28:49.343Z,30.50
2023-04-21T12:29:49.342Z,30.47
2023-04-21T12:30:49.398Z,30.46
2023-04-21T12:31:49.455Z,30.45
2023-04-21T12:32:49.502Z,30.46
2023-04-21T12:33:49.588Z,30.45
2023-04-21T12:34:49.528Z,30.46
2023-04-21T12:35:49.591Z,30.42
2023-04-21T12:36:49.607Z,30.45
2023-04-21T12:37:49.629Z,30.43
2023-04-21T12:38:49.622Z,30.43
2023-04-21T12:39:49.639Z,30.45
2023-04-21T12:40:49.670Z,30.42
2023-04-21T12:41:49.688Z,30.43
2023-04-21T12:42:49.723Z,30.40
2023-04-21T12:43:49.764Z,30.41
2023-04-21T12:44:49.819Z,30.41
2023-04-21T12:45:49.939Z,30.41
2023-04-21T12:46:49.904Z,30.39
2023-04-21T12:47:49.965Z,30.40
2023-04-21T12:48:49.986Z,30.40
2023-04-21T12:49:49.988Z,30.40
2023-04-21T12:50:50.010Z,30.38
2023-04-21T12:51:50.026Z,30.38
2023-04-21T12:52:50.055Z,30.39
2023-04-21T12:53:50.054Z,30.38
2023-04-21T12:54:50.025Z,30.34